Time;durP1;ratioP1;P1;durP2;ratioP2;P2;SDS_P1;SDS_P2;PMS_P1;PMS_P2;Temp;Humidity;BMP_temperature;BMP_pressure;BME280_temperature;BME280_humidity;BME280_pressure;Samples;Min_cycle;Max_cycle;Signal;HPM_P1;HPM_P2
2021/05/29 00:01:25;;;;;;;3.03;1.25;;;17.70;64.90;;;;;;2539255;54;21044;-68
2021/05/29 00:03:52;;;;;;;2.83;1.33;;;17.70;65.00;;;;;;2301603;54;20995;-69
2021/05/29 00:06:19;;;;;;;2.92;1.40;;;17.60;64.80;;;;;;2301950;54;20972;-70
2021/05/29 00:08:47;;;;;;;2.60;1.20;;;17.60;64.70;;;;;;2302068;54;21503;-69
2021/05/29 00:11:14;;;;;;;2.28;1.17;;;17.60;64.50;;;;;;2301677;54;21030;-70
2021/05/29 00:13:41;;;;;;;2.85;1.10;;;17.60;64.80;;;;;;2301492;54;21012;-71
2021/05/29 00:16:09;;;;;;;2.65;1.12;;;17.60;64.80;;;;;;2539268;54;20940;-68
2021/05/29 00:18:36;;;;;;;3.70;1.48;;;17.50;64.80;;;;;;2301806;54;20944;-70
2021/05/29 00:21:03;;;;;;;2.40;1.10;;;17.50;64.80;;;;;;2503386;54;21016;-71
2021/05/29 00:23:29;;;;;;;2.62;1.20;;;17.50;64.80;;;;;;2302189;54;20953;-71
2021/05/29 00:25:57;;;;;;;2.50;1.10;;;17.50;64.90;;;;;;2539122;54;20929;-69
2021/05/29 00:28:23;;;;;;;2.28;1.02;;;17.50;64.90;;;;;;2423933;53;20921;-73
2021/05/29 00:30:49;;;;;;;2.50;1.05;;;17.40;64.90;;;;;;2301977;54;21032;-72
2021/05/29 00:33:16;;;;;;;2.55;1.02;;;17.40;64.90;;;;;;2466455;53;20980;-71
2021/05/29 00:35:43;;;;;;;2.08;1.08;;;17.40;65.00;;;;;;2538627;54;20961;-71
2021/05/29 00:38:10;;;;;;;2.10;1.00;;;17.40;65.00;;;;;;2301721;54;21885;-70
2021/05/29 00:40:36;;;;;;;2.58;1.30;;;17.40;65.00;;;;;;2298862;54;20980;-70
2021/05/29 00:43:04;;;;;;;3.03;1.45;;;17.40;64.90;;;;;;2298981;54;20983;-70
2021/05/29 00:45:30;;;;;;;2.30;1.10;;;17.30;64.80;;;;;;2342597;54;21020;-70
2021/05/29 00:48:00;;;;;;;3.30;1.40;;;17.30;64.80;;;;;;2301685;54;20956;-68
2021/05/29 00:50:27;;;;;;;2.95;1.50;;;17.30;64.90;;;;;;2309668;54;21012;-68
2021/05/29 00:52:55;;;;;;;2.45;1.27;;;17.30;65.00;;;;;;2301822;54;20952;-72
2021/05/29 00:55:22;;;;;;;3.78;1.25;;;17.30;65.10;;;;;;2301685;54;20936;-73
2021/05/29 00:57:50;;;;;;;5.57;1.20;;;17.30;65.20;;;;;;2301995;54;21016;-68
2021/05/29 01:00:20;;;;;;;3.75;1.40;;;17.30;65.30;;;;;;2301576;54;20924;-70
2021/05/29 01:02:47;;;;;;;3.03;1.30;;;17.20;65.20;;;;;;2301375;54;20961;-71
2021/05/29 01:05:15;;;;;;;2.25;1.10;;;17.20;65.30;;;;;;2301918;54;21036;-70
2021/05/29 01:07:41;;;;;;;2.78;1.02;;;17.20;65.30;;;;;;2301630;54;20961;-72
2021/05/29 01:10:09;;;;;;;4.05;1.25;;;17.20;65.40;;;;;;2301719;54;20916;-71
2021/05/29 01:12:35;;;;;;;2.78;1.17;;;17.20;65.40;;;;;;2307774;54;20968;-68
2021/05/29 01:15:05;;;;;;;2.85;1.60;;;17.20;65.40;;;;;;2301706;54;21595;-68
2021/05/29 01:17:31;;;;;;;4.70;1.20;;;17.20;65.50;;;;;;2301793;54;20988;-71
2021/05/29 01:19:57;;;;;;;2.78;1.27;;;17.20;65.50;;;;;;2302001;54;20976;-69
2021/05/29 01:22:52;;;;;;;3.15;1.67;;;17.20;65.60;;;;;;2301702;54;21769;-69
2021/05/29 01:25:32;;;;;;;2.90;1.70;;;17.20;64.80;;;;;;2301728;54;20944;-68
2021/05/29 01:28:11;;;;;;;2.97;1.75;;;17.20;65.20;;;;;;2301823;54;21040;-72
2021/05/29 01:30:47;;;;;;;2.55;1.40;;;17.10;65.40;;;;;;2275561;55;21280;-70
2021/05/29 01:33:21;;;;;;;2.28;1.15;;;17.10;65.60;;;;;;2302174;54;20940;-73
2021/05/29 01:35:47;;;;;;;2.70;1.20;;;17.10;65.30;;;;;;2302198;54;20971;-70
2021/05/29 01:38:15;;;;;;;2.20;1.20;;;17.10;65.70;;;;;;2299979;54;21058;-70
2021/05/29 01:40:42;;;;;;;1.85;0.90;;;17.00;65.60;;;;;;2299439;54;20980;-70
2021/05/29 01:43:09;;;;;;;2.45;1.27;;;17.00;65.60;;;;;;2301965;54;20945;-68
2021/05/29 01:45:38;;;;;;;2.00;1.00;;;17.00;65.60;;;;;;2301921;54;20988;-70
2021/05/29 01:48:05;;;;;;;2.87;0.98;;;17.00;65.70;;;;;;2302063;54;20956;-69
2021/05/29 01:50:32;;;;;;;1.92;1.02;;;16.90;65.60;;;;;;2297496;54;20921;-69
2021/05/29 01:52:59;;;;;;;2.62;1.02;;;16.90;65.80;;;;;;2302752;54;20962;-70
2021/05/29 01:55:27;;;;;;;2.03;1.05;;;16.90;65.80;;;;;;2300395;54;21721;-69
2021/05/29 01:57:54;;;;;;;3.22;1.27;;;16.80;65.70;;;;;;2293930;54;21001;-70
2021/05/29 02:00:23;;;;;;;3.00;1.20;;;16.80;65.80;;;;;;2301981;54;21008;-70
2021/05/29 02:02:49;;;;;;;2.08;1.00;;;16.80;65.80;;;;;;2301888;54;20956;-69
2021/05/29 02:05:23;;;;;;;2.40;1.15;;;16.80;65.90;;;;;;2300119;54;20957;-69
2021/05/29 02:07:51;;;;;;;3.00;1.37;;;16.80;65.80;;;;;;2298761;55;21085;-72
2021/05/29 02:10:22;;;;;;;2.35;1.27;;;16.80;66.10;;;;;;2299294;54;20981;-71
2021/05/29 02:12:51;;;;;;;2.37;1.30;;;16.80;65.90;;;;;;2276223;55;21061;-68
2021/05/29 02:15:19;;;;;;;2.60;1.27;;;16.80;66.00;;;;;;2302259;54;20933;-68
2021/05/29 02:17:47;;;;;;;2.53;1.42;;;16.80;66.10;;;;;;2302038;54;21003;-71
2021/05/29 02:20:14;;;;;;;2.83;1.58;;;16.80;66.10;;;;;;2539305;54;20997;-71
2021/05/29 02:22:40;;;;;;;2.83;1.50;;;16.80;66.10;;;;;;2301567;54;21059;-68
2021/05/29 02:25:07;;;;;;;2.78;1.10;;;16.80;66.20;;;;;;2302053;54;20932;-71
2021/05/29 02:27:33;;;;;;;2.97;1.33;;;16.80;66.20;;;;;;2301980;54;20936;-70
2021/05/29 02:30:00;;;;;;;2.60;1.30;;;16.70;66.10;;;;;;2300730;54;20953;-73
2021/05/29 02:32:26;;;;;;;2.85;1.27;;;16.70;66.20;;;;;;2296162;54;21389;-72
2021/05/29 02:34:53;;;;;;;2.87;1.15;;;16.70;66.30;;;;;;2301841;54;21842;-71
2021/05/29 02:37:19;;;;;;;2.95;1.33;;;16.80;66.40;;;;;;2302041;54;21436;-68
2021/05/29 02:39:46;;;;;;;2.28;1.20;;;16.70;66.40;;;;;;2301722;54;20941;-70
2021/05/29 02:42:12;;;;;;;2.47;1.30;;;16.80;66.50;;;;;;2300140;54;21025;-71
2021/05/29 02:44:38;;;;;;;2.08;0.90;;;16.80;66.60;;;;;;2536040;53;20956;-68
2021/05/29 02:47:05;;;;;;;2.20;1.10;;;16.80;66.50;;;;;;2303871;54;21077;-72
2021/05/29 02:49:31;;;;;;;1.65;0.90;;;16.80;66.50;;;;;;2296385;54;20952;-69
2021/05/29 02:51:59;;;;;;;2.30;1.08;;;16.80;66.50;;;;;;2538846;54;21084;-70
2021/05/29 02:54:26;;;;;;;2.30;0.90;;;16.80;66.40;;;;;;2300189;55;20941;-67
2021/05/29 02:56:52;;;;;;;1.90;0.80;;;16.80;66.40;;;;;;2297521;54;21008;-70
2021/05/29 02:59:18;;;;;;;1.62;0.77;;;16.80;66.40;;;;;;2298657;54;20909;-70
2021/05/29 03:01:44;;;;;;;3.10;1.27;;;16.80;66.40;;;;;;2538179;53;21056;-73
2021/05/29 03:04:14;;;;;;;2.10;1.10;;;16.70;66.00;;;;;;2301874;54;20960;-69
2021/05/29 03:06:42;;;;;;;2.10;1.00;;;16.70;66.00;;;;;;2302387;54;20932;-70
2021/05/29 03:09:08;;;;;;;2.87;1.08;;;16.70;66.10;;;;;;2301983;54;20936;-71
2021/05/29 03:11:39;;;;;;;2.55;1.20;;;16.70;66.10;;;;;;2302532;54;20956;-71
2021/05/29 03:14:06;;;;;;;2.78;1.12;;;16.70;66.20;;;;;;2514549;53;20933;-70
2021/05/29 03:16:32;;;;;;;2.42;1.00;;;16.60;66.30;;;;;;2532464;53;20984;-68
2021/05/29 03:18:59;;;;;;;2.87;1.12;;;16.60;66.30;;;;;;2299568;54;21370;-71
2021/05/29 03:21:25;;;;;;;2.72;1.12;;;16.60;66.30;;;;;;2295263;55;20958;-69
2021/05/29 03:23:51;;;;;;;2.10;1.02;;;16.60;66.30;;;;;;2302780;54;21072;-69
2021/05/29 03:26:19;;;;;;;2.75;1.08;;;16.60;66.30;;;;;;2539251;54;21007;-70
2021/05/29 03:28:45;;;;;;;2.53;1.15;;;16.50;66.30;;;;;;2302021;54;20988;-70
2021/05/29 03:31:12;;;;;;;2.28;1.10;;;16.50;66.40;;;;;;2301803;54;21009;-69
2021/05/29 03:33:40;;;;;;;2.42;1.10;;;16.50;66.40;;;;;;2301739;54;20968;-69
2021/05/29 03:36:09;;;;;;;3.72;1.37;;;16.50;66.50;;;;;;2467835;53;21013;-74
2021/05/29 03:38:36;;;;;;;2.37;1.20;;;16.50;66.40;;;;;;2300597;54;20965;-72
2021/05/29 03:41:02;;;;;;;2.60;1.37;;;16.50;66.70;;;;;;2304375;54;20973;-69
2021/05/29 03:43:29;;;;;;;3.80;1.77;;;16.50;66.80;;;;;;2296634;55;21028;-71
2021/05/29 03:45:55;;;;;;;2.80;1.60;;;16.50;66.80;;;;;;2293566;55;20988;-69
2021/05/29 03:48:22;;;;;;;2.70;1.40;;;16.50;66.90;;;;;;2302686;55;20965;-67
2021/05/29 03:50:48;;;;;;;2.78;1.50;;;16.40;66.80;;;;;;2297402;54;21036;-69
2021/05/29 03:53:15;;;;;;;2.87;1.40;;;16.40;66.80;;;;;;2300632;54;21739;-69
2021/05/29 03:55:43;;;;;;;2.45;1.30;;;16.40;66.90;;;;;;2535508;53;20964;-69
2021/05/29 03:58:10;;;;;;;4.12;1.50;;;16.40;66.90;;;;;;2539013;54;21025;-69
2021/05/29 04:00:36;;;;;;;2.87;1.42;;;16.40;66.90;;;;;;2301706;54;21079;-68
2021/05/29 04:03:04;;;;;;;2.70;1.50;;;16.40;66.90;;;;;;2303468;54;20965;-69
2021/05/29 04:05:31;;;;;;;2.53;1.40;;;16.40;67.00;;;;;;2534314;53;20972;-69
2021/05/29 04:07:58;;;;;;;2.55;1.35;;;16.40;67.10;;;;;;2302251;54;21070;-71
2021/05/29 04:10:26;;;;;;;2.72;1.40;;;16.40;67.00;;;;;;2294715;55;21703;-69
2021/05/29 04:12:53;;;;;;;2.53;1.20;;;16.40;67.00;;;;;;2302514;54;21887;-70
2021/05/29 04:15:19;;;;;;;2.40;1.30;;;16.40;67.00;;;;;;2298047;54;20917;-71
2021/05/29 04:17:46;;;;;;;2.72;1.37;;;16.40;67.10;;;;;;2302095;54;20913;-70
2021/05/29 04:20:15;;;;;;;2.92;1.42;;;16.40;67.20;;;;;;2301427;54;20956;-70
2021/05/29 04:22:41;;;;;;;1.87;1.00;;;16.40;67.20;;;;;;2301412;54;20952;-68
2021/05/29 04:25:09;;;;;;;2.17;1.15;;;16.40;67.30;;;;;;2301613;54;20969;-70
2021/05/29 04:27:36;;;;;;;3.42;0.90;;;16.40;67.30;;;;;;2302755;54;21012;-70
2021/05/29 04:30:07;;;;;;;4.12;1.15;;;16.40;67.30;;;;;;2538931;54;21492;-72
2021/05/29 04:32:33;;;;;;;2.30;0.90;;;16.40;67.30;;;;;;2301775;54;20947;-71
2021/05/29 04:35:00;;;;;;;2.05;1.10;;;16.50;67.50;;;;;;2539170;54;20964;-70
2021/05/29 04:37:27;;;;;;;15.23;1.60;;;16.40;67.50;;;;;;2301851;54;21408;-68
2021/05/29 04:39:53;;;;;;;3.10;1.90;;;16.40;67.60;;;;;;2304363;54;20993;-68
2021/05/29 04:42:20;;;;;;;3.80;2.20;;;16.40;67.50;;;;;;2294720;54;20989;-70
2021/05/29 04:44:46;;;;;;;4.60;1.95;;;16.40;67.60;;;;;;2302885;54;20957;-69
2021/05/29 04:47:13;;;;;;;3.03;1.65;;;16.50;67.70;;;;;;2296921;55;20950;-71
2021/05/29 04:49:40;;;;;;;3.60;2.10;;;16.50;67.80;;;;;;2528966;53;21044;-69
2021/05/29 04:52:06;;;;;;;3.58;2.03;;;16.50;67.80;;;;;;2301912;54;21036;-71
2021/05/29 04:54:33;;;;;;;4.65;1.95;;;16.50;67.80;;;;;;2305922;54;20960;-69
2021/05/29 04:57:00;;;;;;;3.33;1.52;;;16.50;67.70;;;;;;2526954;53;21019;-69
2021/05/29 04:59:28;;;;;;;2.35;1.27;;;16.50;67.70;;;;;;2530894;54;20940;-71
2021/05/29 05:01:55;;;;;;;3.55;1.80;;;16.50;67.70;;;;;;2529429;53;20981;-70
2021/05/29 05:04:21;;;;;;;2.70;1.40;;;16.50;67.80;;;;;;2527533;53;21453;-70
2021/05/29 05:06:48;;;;;;;2.55;1.40;;;16.50;67.90;;;;;;2529413;53;20942;-70
2021/05/29 05:09:14;;;;;;;2.30;1.12;;;16.50;67.90;;;;;;2299290;55;20941;-69
2021/05/29 05:11:41;;;;;;;3.78;1.48;;;16.50;68.00;;;;;;2529876;54;21405;-71
2021/05/29 05:14:07;;;;;;;2.58;1.30;;;16.50;68.10;;;;;;2301566;54;20936;-70
2021/05/29 05:16:33;;;;;;;2.90;1.62;;;16.60;68.20;;;;;;2301437;54;20928;-71
2021/05/29 05:19:00;;;;;;;2.67;1.40;;;16.60;68.20;;;;;;2301306;54;21008;-70
2021/05/29 05:21:27;;;;;;;2.87;1.30;;;16.60;68.20;;;;;;2301511;54;20940;-69
2021/05/29 05:23:56;;;;;;;2.95;1.50;;;16.60;68.20;;;;;;2301763;54;20965;-69
2021/05/29 05:26:24;;;;;;;2.85;1.27;;;16.70;68.20;;;;;;2301942;54;21480;-68
2021/05/29 05:28:50;;;;;;;2.87;1.48;;;16.70;68.40;;;;;;2539395;54;20968;-71
2021/05/29 05:31:19;;;;;;;5.10;1.95;;;16.70;68.40;;;;;;2302405;54;20902;-71
2021/05/29 05:33:48;;;;;;;2.95;1.60;;;16.70;68.40;;;;;;2538474;54;21461;-70
2021/05/29 05:36:14;;;;;;;4.22;1.92;;;16.80;68.40;;;;;;2301895;54;20952;-68
2021/05/29 05:38:41;;;;;;;3.22;1.70;;;16.80;68.30;;;;;;2328919;54;20968;-71
2021/05/29 05:41:11;;;;;;;2.83;1.40;;;16.80;68.20;;;;;;2299584;54;21008;-72
2021/05/29 05:43:38;;;;;;;3.00;1.60;;;16.90;68.50;;;;;;2434381;54;21037;-72
2021/05/29 05:46:04;;;;;;;3.47;1.40;;;16.90;68.50;;;;;;2539006;54;20968;-71
2021/05/29 05:48:34;;;;;;;5.12;1.45;;;17.00;68.80;;;;;;2385625;54;21033;-69
2021/05/29 05:51:08;;;;;;;2.92;1.48;;;17.00;68.90;;;;;;2296222;55;21031;-68
2021/05/29 05:53:35;;;;;;;2.42;1.37;;;17.10;68.90;;;;;;2295498;55;21005;-69
2021/05/29 05:56:03;;;;;;;3.80;1.42;;;17.10;68.90;;;;;;2302307;54;20928;-73
2021/05/29 05:58:31;;;;;;;3.65;1.90;;;17.20;68.80;;;;;;2294947;55;20963;-68
2021/05/29 06:01:00;;;;;;;2.65;1.60;;;17.20;68.80;;;;;;2526923;53;20973;-71
2021/05/29 06:03:27;;;;;;;4.32;1.80;;;17.30;68.80;;;;;;2302231;54;20987;-68
2021/05/29 06:05:54;;;;;;;2.92;1.50;;;17.30;68.90;;;;;;2531495;53;21481;-70
2021/05/29 06:08:21;;;;;;;4.37;1.98;;;17.40;69.70;;;;;;2538684;54;21377;-71
2021/05/29 06:10:48;;;;;;;4.05;1.85;;;17.40;69.10;;;;;;2303242;54;21544;-69
2021/05/29 06:13:17;;;;;;;4.47;2.53;;;17.50;69.30;;;;;;2300501;54;21008;-69
2021/05/29 06:24:28;;;;;;;3.83;1.12;;;17.70;69.40;;;;;;2302288;54;20936;-71
2021/05/29 06:26:55;;;;;;;2.65;1.40;;;18.00;69.60;;;;;;2302075;54;20948;-73
2021/05/29 06:29:21;;;;;;;2.72;1.60;;;18.00;69.40;;;;;;2306121;54;21517;-69
2021/05/29 06:31:48;;;;;;;2.62;1.23;;;18.10;69.30;;;;;;2301902;54;20963;-71
2021/05/29 06:34:15;;;;;;;1.98;0.93;;;18.20;69.40;;;;;;2301796;54;20956;-71
2021/05/29 06:36:41;;;;;;;1.77;0.90;;;18.30;69.40;;;;;;2537388;53;20958;-70
2021/05/29 06:39:11;;;;;;;2.78;1.15;;;18.30;69.10;;;;;;2296319;54;21000;-70
2021/05/29 06:41:42;;;;;;;2.60;0.98;;;18.40;68.90;;;;;;2301884;54;20949;-70
2021/05/29 06:44:09;;;;;;;1.98;0.93;;;18.50;69.20;;;;;;2305490;54;21385;-73
2021/05/29 06:46:35;;;;;;;1.83;0.90;;;18.60;69.10;;;;;;2497527;54;20974;-70
2021/05/29 06:49:03;;;;;;;2.97;1.20;;;18.70;68.90;;;;;;2302081;54;20961;-71
2021/05/29 06:51:40;;;;;;;2.75;1.02;;;18.90;68.80;;;;;;2529054;53;20920;-68
2021/05/29 06:54:24;;;;;;;1.75;1.00;;;18.90;68.30;;;;;;2302150;54;21021;-71
2021/05/29 06:59:35;;;;;;;2.20;0.90;;;19.10;68.10;;;;;;2305674;54;21029;-71
2021/05/29 07:02:05;;;;;;;2.15;0.80;;;19.20;68.00;;;;;;2539164;54;21005;-70
2021/05/29 07:04:32;;;;;;;2.65;0.80;;;19.30;67.90;;;;;;2301859;54;20952;-70
2021/05/29 07:06:59;;;;;;;2.40;1.10;;;19.40;67.90;;;;;;2538822;54;21293;-69
2021/05/29 07:09:25;;;;;;;2.10;1.00;;;19.40;67.70;;;;;;2301236;54;21072;-71
2021/05/29 07:11:51;;;;;;;3.42;0.95;;;19.50;67.60;;;;;;2302055;54;20945;-71
2021/05/29 07:14:19;;;;;;;2.10;0.90;;;19.50;67.30;;;;;;2530485;53;21479;-71
2021/05/29 07:16:51;;;;;;;2.30;0.75;;;19.60;67.20;;;;;;2476021;54;20961;-71
2021/05/29 07:19:21;;;;;;;2.28;1.00;;;19.70;67.30;;;;;;2302138;54;20939;-70
2021/05/29 07:21:48;;;;;;;1.90;0.90;;;19.70;67.20;;;;;;2351428;54;21427;-69
2021/05/29 07:24:14;;;;;;;2.83;0.85;;;19.80;67.20;;;;;;2301926;54;21067;-71
2021/05/29 07:26:41;;;;;;;2.08;0.95;;;19.90;67.10;;;;;;2301766;54;20961;-71
2021/05/29 07:29:07;;;;;;;2.25;0.73;;;20.00;67.10;;;;;;2302900;54;20956;-70
2021/05/29 07:31:34;;;;;;;2.22;0.88;;;20.10;67.10;;;;;;2319194;55;20964;-72
2021/05/29 07:34:00;;;;;;;1.90;0.80;;;20.20;67.00;;;;;;2453779;54;21037;-72
2021/05/29 07:36:27;;;;;;;2.50;0.98;;;20.30;66.90;;;;;;2363978;54;20941;-70
2021/05/29 07:38:53;;;;;;;3.33;0.73;;;20.30;66.40;;;;;;2413998;53;20952;-69
2021/05/29 07:41:20;;;;;;;1.75;0.80;;;20.40;66.10;;;;;;2297175;55;20953;-73
2021/05/29 07:43:47;;;;;;;2.00;1.00;;;20.50;65.80;;;;;;2299538;54;20929;-71
2021/05/29 07:46:19;;;;;;;1.85;0.82;;;20.50;65.60;;;;;;2538189;53;20959;-71
2021/05/29 07:48:46;;;;;;;2.00;0.85;;;20.60;65.60;;;;;;2301945;54;21361;-74
2021/05/29 07:51:12;;;;;;;1.42;0.70;;;20.70;65.40;;;;;;2539022;54;21416;-71
2021/05/29 07:53:40;;;;;;;2.10;0.90;;;20.70;65.40;;;;;;2302124;54;20937;-71
2021/05/29 07:56:11;;;;;;;1.42;0.70;;;20.80;65.30;;;;;;2539091;54;21804;-73
2021/05/29 07:58:41;;;;;;;1.50;0.70;;;20.90;65.90;;;;;;2275770;55;21028;-71
2021/05/29 08:01:09;;;;;;;1.87;0.80;;;20.90;65.20;;;;;;2314249;54;21412;-69
2021/05/29 08:03:35;;;;;;;1.77;0.77;;;21.00;64.50;;;;;;2302815;54;21104;-71
2021/05/29 08:06:07;;;;;;;1.87;1.00;;;21.10;64.20;;;;;;2476554;53;20969;-73
2021/05/29 08:08:34;;;;;;;1.70;0.80;;;21.20;63.70;;;;;;2302101;54;20977;-71
2021/05/29 08:11:03;;;;;;;2.08;0.90;;;21.20;63.70;;;;;;2300573;54;21407;-69
2021/05/29 08:13:29;;;;;;;1.50;0.60;;;21.30;63.80;;;;;;2300055;54;21025;-74
2021/05/29 08:15:56;;;;;;;2.42;0.70;;;21.40;63.90;;;;;;2535431;53;20960;-70
2021/05/29 08:18:22;;;;;;;1.40;0.50;;;21.40;63.90;;;;;;2302016;54;20971;-72
2021/05/29 08:20:49;;;;;;;1.25;0.60;;;21.60;64.00;;;;;;2297489;55;20937;-73
2021/05/29 08:23:16;;;;;;;2.17;0.90;;;21.60;63.80;;;;;;2301836;54;20945;-73
2021/05/29 08:25:43;;;;;;;1.42;0.62;;;21.70;63.50;;;;;;2452385;54;21016;-70
2021/05/29 08:28:10;;;;;;;1.90;0.80;;;21.80;63.10;;;;;;2299173;54;21017;-72
2021/05/29 08:30:36;;;;;;;1.85;0.80;;;21.90;62.80;;;;;;2300106;54;21088;-70
2021/05/29 08:33:03;;;;;;;1.65;0.68;;;22.00;62.70;;;;;;2301990;55;20935;-72
2021/05/29 08:35:33;;;;;;;1.35;0.60;;;22.00;62.40;;;;;;2293658;54;21587;-70
2021/05/29 08:37:59;;;;;;;1.73;0.70;;;22.10;62.40;;;;;;2301686;54;21198;-69
2021/05/29 08:40:25;;;;;;;1.62;0.77;;;22.20;62.10;;;;;;2301871;54;20952;-72
2021/05/29 08:42:52;;;;;;;1.92;0.90;;;22.20;61.00;;;;;;2301964;54;20916;-70
2021/05/29 08:45:18;;;;;;;3.92;1.30;;;22.30;61.50;;;;;;2538891;54;21020;-72
2021/05/29 08:47:47;;;;;;;3.62;1.30;;;22.30;61.60;;;;;;2302179;54;20937;-72
2021/05/29 08:50:16;;;;;;;2.60;1.10;;;22.40;61.00;;;;;;2301822;54;20964;-70
2021/05/29 08:52:45;;;;;;;2.05;0.90;;;22.40;61.20;;;;;;2388464;54;21021;-71
2021/05/29 08:55:14;;;;;;;3.70;1.10;;;22.40;61.60;;;;;;2295955;54;21804;-71
2021/05/29 08:57:40;;;;;;;2.47;1.00;;;22.50;61.20;;;;;;2488073;54;20936;-72
2021/05/29 09:00:09;;;;;;;4.18;1.62;;;22.50;61.70;;;;;;2275720;55;21484;-71
2021/05/29 09:02:58;;;;;;;4.25;1.80;;;22.60;61.80;;;;;;2301822;54;20979;-71
2021/05/29 09:05:49;;;;;;;2.92;1.00;;;22.70;60.00;;;;;;2301792;54;21689;-72
2021/05/29 09:08:15;;;;;;;2.00;0.93;;;22.80;59.90;;;;;;2305315;54;21879;-72
2021/05/29 09:10:50;;;;;;;2.35;0.82;;;22.80;61.70;;;;;;2295413;55;20945;-74
2021/05/29 09:13:18;;;;;;;4.72;0.73;;;22.90;61.30;;;;;;2301934;54;21926;-72
2021/05/29 09:16:03;;;;;;;2.87;1.10;;;22.90;61.20;;;;;;2302009;54;20948;-74
2021/05/29 09:18:45;;;;;;;3.35;0.90;;;22.90;59.00;;;;;;2301798;54;21323;-68
2021/05/29 09:21:34;;;;;;;2.83;1.00;;;23.00;60.30;;;;;;2304045;54;21864;-69
2021/05/29 09:24:16;;;;;;;1.92;0.93;;;23.00;58.70;;;;;;2301687;54;20957;-69
2021/05/29 09:26:52;;;;;;;2.33;0.80;;;22.90;58.00;;;;;;2303081;54;21052;-68
2021/05/29 09:29:29;;;;;;;2.10;1.00;;;22.90;58.30;;;;;;2304835;54;20976;-71
2021/05/29 09:32:06;;;;;;;2.70;1.10;;;22.80;58.30;;;;;;2536763;53;21075;-72
2021/05/29 09:34:44;;;;;;;3.78;0.98;;;22.70;58.80;;;;;;2296631;54;20944;-69
2021/05/29 09:37:13;;;;;;;1.95;0.80;;;22.60;58.70;;;;;;2281296;55;20969;-79
2021/05/29 09:39:41;;;;;;;2.12;0.93;;;22.60;60.00;;;;;;2294011;55;20954;-69
2021/05/29 09:42:08;;;;;;;2.20;0.88;;;22.60;60.10;;;;;;2304662;54;20972;-72
2021/05/29 09:44:35;;;;;;;3.03;0.90;;;22.60;60.40;;;;;;2396450;54;20961;-71
2021/05/29 09:47:04;;;;;;;2.33;0.80;;;22.60;60.70;;;;;;2301472;54;21017;-72
2021/05/29 09:49:49;;;;;;;3.22;1.00;;;22.70;60.70;;;;;;2305125;54;21379;-72
2021/05/29 09:52:37;;;;;;;1.58;0.77;;;22.70;59.60;;;;;;2274900;55;21039;-73
2021/05/29 09:58:00;;;;;;;2.45;1.25;;;22.80;60.60;;;;;;2299523;55;21380;-70
2021/05/29 10:00:43;;;;;;;1.50;0.60;;;22.90;58.30;;;;;;2301200;55;20949;-71
2021/05/29 10:03:12;;;;;;;2.22;0.80;;;22.90;59.00;;;;;;2301554;55;20996;-72
2021/05/29 10:05:41;;;;;;;2.53;0.80;;;22.90;60.80;;;;;;2301882;55;21412;-73
2021/05/29 10:08:12;;;;;;;2.62;1.00;;;22.90;60.90;;;;;;2301738;55;21032;-72
2021/05/29 10:10:39;;;;;;;2.55;1.10;;;23.00;60.40;;;;;;2301653;55;20991;-73
2021/05/29 10:13:05;;;;;;;1.67;0.80;;;23.10;60.90;;;;;;2301494;55;21820;-72
2021/05/29 10:15:32;;;;;;;1.95;0.90;;;23.20;60.80;;;;;;2301003;55;21816;-70
2021/05/29 10:18:00;;;;;;;1.95;0.90;;;23.20;60.40;;;;;;2538685;53;21420;-73
2021/05/29 10:20:26;;;;;;;2.12;0.90;;;23.30;60.30;;;;;;2538674;53;20929;-72
2021/05/29 10:22:55;;;;;;;2.60;1.12;;;23.40;60.10;;;;;;2301899;55;20961;-72
2021/05/29 10:25:22;;;;;;;2.25;0.98;;;23.50;59.50;;;;;;2301660;55;21020;-78
2021/05/29 10:27:56;;;;;;;1.98;0.82;;;23.50;59.90;;;;;;2441597;54;21004;-70
2021/05/29 10:30:23;;;;;;;2.30;0.80;;;23.60;60.00;;;;;;2538983;53;21739;-69
2021/05/29 10:33:11;;;;;;;2.62;0.80;;;23.70;60.40;;;;;;2301525;55;20996;-71
2021/05/29 10:35:39;;;;;;;2.95;0.80;;;23.80;59.00;;;;;;2301414;55;20956;-73
2021/05/29 10:38:09;;;;;;;2.33;1.00;;;24.00;60.70;;;;;;2302423;55;20952;-69
2021/05/29 10:40:42;;;;;;;1.45;0.70;;;24.10;60.00;;;;;;2512640;53;20937;-72
2021/05/29 10:43:19;;;;;;;1.67;0.70;;;24.10;58.40;;;;;;2301843;55;21155;-70
2021/05/29 10:46:19;;;;;;;5.40;0.75;;;24.10;57.20;;;;;;2305511;54;20960;-70
2021/05/29 10:48:49;;;;;;;2.10;0.80;;;24.10;56.30;;;;;;2301701;55;21324;-70
2021/05/29 10:51:16;;;;;;;1.58;0.75;;;24.10;58.10;;;;;;2296288;55;21026;-72
2021/05/29 10:53:53;;;;;;;1.90;0.90;;;24.00;58.80;;;;;;2301562;55;21037;-72
2021/05/29 10:56:29;;;;;;;1.90;0.95;;;24.10;57.70;;;;;;2297472;54;20989;-73
2021/05/29 10:59:10;;;;;;;1.42;0.65;;;24.10;56.80;;;;;;2538916;53;21381;-71
2021/05/29 11:01:59;;;;;;;;;;;24.10;57.40;;;;;;2306241;55;20972;-73
2021/05/29 11:04:25;;;;;;;1.60;0.70;;;24.20;58.30;;;;;;2300714;55;20403;-72
2021/05/29 11:07:59;;;;;;;2.42;0.70;;;24.20;58.90;;;;;;2493153;53;21961;-73
2021/05/29 11:10:29;;;;;;;2.70;0.80;;;24.20;57.60;;;;;;2404072;54;21039;-73
2021/05/29 11:12:58;;;;;;;1.60;0.80;;;24.30;58.30;;;;;;2296683;55;21425;-72
2021/05/29 11:15:58;;;;;;;2.03;1.00;;;24.30;58.80;;;;;;2305026;55;21037;-73
2021/05/29 11:18:29;;;;;;;1.67;0.90;;;24.30;56.90;;;;;;2285639;55;20997;-73
2021/05/29 11:21:05;;;;;;;2.75;1.00;;;24.30;58.60;;;;;;2523361;53;20990;-72
2021/05/29 11:23:31;;;;;;;1.95;0.80;;;24.40;57.20;;;;;;2468027;54;21029;-72
2021/05/29 11:25:58;;;;;;;1.92;0.82;;;24.40;58.10;;;;;;2303653;55;21568;-72
2021/05/29 11:28:24;;;;;;;2.10;0.98;;;24.40;57.60;;;;;;2531530;54;20948;-69
2021/05/29 11:30:51;;;;;;;1.65;0.80;;;24.40;57.60;;;;;;2538573;53;20913;-72
2021/05/29 11:33:17;;;;;;;3.00;1.10;;;24.40;57.50;;;;;;2303926;55;21066;-71
2021/05/29 11:35:45;;;;;;;2.10;0.90;;;24.50;57.70;;;;;;2527097;54;20965;-72
2021/05/29 11:38:32;;;;;;;1.70;0.80;;;24.40;57.30;;;;;;2296570;55;20945;-71
2021/05/29 11:41:16;;;;;;;2.22;0.90;;;24.50;57.00;;;;;;2528005;54;21715;-70
2021/05/29 11:43:44;;;;;;;1.85;0.70;;;24.50;57.50;;;;;;2298785;55;20940;-71
2021/05/29 11:46:14;;;;;;;1.50;0.73;;;24.50;57.40;;;;;;2302667;55;21042;-71
2021/05/29 11:49:04;;;;;;;2.03;0.95;;;24.60;56.80;;;;;;2296950;54;20974;-74
2021/05/29 11:51:34;;;;;;;2.40;1.00;;;24.60;57.20;;;;;;2300730;55;20935;-72
2021/05/29 11:54:15;;;;;;;3.08;0.90;;;24.60;57.00;;;;;;2300244;55;21002;-73
2021/05/29 11:56:51;;;;;;;2.58;1.15;;;24.70;56.60;;;;;;2298119;55;20977;-72
2021/05/29 11:59:18;;;;;;;2.40;1.00;;;24.80;56.20;;;;;;2409857;53;21065;-72
2021/05/29 12:01:48;;;;;;;1.70;0.95;;;24.80;57.50;;;;;;2297095;55;20930;-73
2021/05/29 12:04:28;;;;;;;2.45;0.90;;;24.90;57.40;;;;;;2301477;55;20948;-72
2021/05/29 12:06:57;;;;;;;3.87;0.98;;;25.00;57.20;;;;;;2291496;55;21002;-70
2021/05/29 12:09:31;;;;;;;2.03;0.95;;;25.00;56.70;;;;;;2538338;53;20996;-72
2021/05/29 12:11:58;;;;;;;2.95;1.10;;;25.00;55.80;;;;;;2275276;55;21025;-75
2021/05/29 12:14:36;;;;;;;;;;;25.00;56.70;;;;;;2308416;55;20969;-71
2021/05/29 12:17:09;;;;;;;2.17;0.70;;;25.10;56.90;;;;;;2301515;55;20115;-73
2021/05/29 12:19:39;;;;;;;2.05;0.88;;;25.10;56.20;;;;;;2427641;53;21406;-73
2021/05/29 12:22:25;;;;;;;4.40;1.00;;;25.10;55.70;;;;;;2298245;55;20969;-71
2021/05/29 12:25:02;;;;;;;2.22;0.93;;;25.00;55.20;;;;;;2538897;53;20989;-71
2021/05/29 12:27:34;;;;;;;1.60;0.80;;;25.00;54.30;;;;;;2276201;55;20984;-70
2021/05/29 12:30:04;;;;;;;2.85;1.00;;;25.00;55.20;;;;;;2504949;54;20996;-72
2021/05/29 12:32:31;;;;;;;2.62;0.93;;;25.00;55.50;;;;;;2303030;58;21148;-71
2021/05/29 12:35:32;;;;;;;2.10;0.90;;;25.00;55.60;;;;;;2302637;58;21056;-71
2021/05/29 12:38:18;;;;;;;2.47;0.90;;;25.00;54.20;;;;;;2358704;54;21134;-70
2021/05/29 12:44:16;;;;;;;1.90;0.80;;;25.00;54.40;;;;;;2480973;55;21015;-71
2021/05/29 12:46:42;;;;;;;1.95;0.70;;;25.10;56.40;;;;;;2296548;55;21507;-71
2021/05/29 12:49:13;;;;;;;1.67;0.70;;;25.10;57.00;;;;;;2506440;53;22295;-71
2021/05/29 12:52:02;;;;;;;1.50;0.70;;;25.20;56.00;;;;;;2301276;55;20980;-73
2021/05/29 12:54:45;;;;;;;2.03;0.82;;;25.20;55.00;;;;;;2301458;55;20968;-73
2021/05/29 12:57:11;;;;;;;3.25;0.88;;;25.30;55.10;;;;;;2305249;54;20972;-72
2021/05/29 12:59:38;;;;;;;2.00;0.75;;;25.30;56.30;;;;;;2363982;54;20972;-73
2021/05/29 13:02:31;;;;;;;2.92;1.00;;;25.30;56.10;;;;;;2301508;55;20912;-76
2021/05/29 13:07:43;;;;;;;2.70;0.90;;;25.40;55.70;;;;;;2437955;53;21489;-72
2021/05/29 13:10:26;;;;;;;1.77;0.77;;;25.40;55.50;;;;;;2296796;55;20960;-71
2021/05/29 13:13:03;;;;;;;1.85;0.80;;;25.40;55.30;;;;;;2300779;55;21032;-70
2021/05/29 13:15:29;;;;;;;1.45;0.70;;;25.40;53.90;;;;;;2301467;55;21008;-73
2021/05/29 13:18:12;;;;;;;1.73;0.80;;;25.30;54.50;;;;;;2301388;55;20951;-72
2021/05/29 13:20:39;;;;;;;1.92;0.82;;;25.40;53.40;;;;;;2526162;54;20965;-70
2021/05/29 13:23:06;;;;;;;2.30;1.10;;;25.40;55.10;;;;;;2295117;55;21068;-70